createdAt,value
2023-04-28T00:01:47.226Z,87.05
2023-04-28T00:04:18.970Z,86.87
2023-04-28T00:06:50.846Z,87.94
2023-04-28T00:09:22.282Z,86.79
2023-04-28T00:11:53.738Z,84.90
2023-04-28T00:14:25.199Z,87.84
2023-04-28T00:16:56.843Z,91.78
2023-04-28T00:19:28.422Z,91.21
2023-04-28T00:21:59.886Z,87.25
2023-04-28T00:24:31.340Z,86.09
2023-04-28T00:27:02.973Z,86.95
2023-04-28T00:29:34.420Z,87.10
2023-04-28T00:32:05.951Z,87.95
2023-04-28T00:34:37.497Z,89.34
2023-04-28T00:37:09.270Z,91.47
2023-04-28T00:39:40.720Z,89.66
2023-04-28T00:42:12.521Z,90.91
2023-04-28T00:44:43.981Z,88.27
2023-04-28T00:47:15.625Z,86.55
2023-04-28T00:49:47.080Z,86.06
2023-04-28T00:52:18.794Z,84.80
2023-04-28T00:54:50.238Z,85.27
2023-04-28T00:57:22.042Z,83.62
2023-04-28T00:59:53.497Z,84.50
2023-04-28T01:02:25.441Z,85.81
2023-04-28T01:04:56.977Z,86.80
2023-04-28T01:07:28.763Z,87.29
2023-04-28T01:10:00.239Z,88.66
2023-04-28T01:12:32.095Z,86.10
2023-04-28T01:15:03.533Z,86.56
2023-04-28T01:17:35.337Z,86.99
2023-04-28T01:20:06.872Z,87.00
2023-04-28T01:22:38.702Z,85.65
2023-04-28T01:25:10.151Z,86.19
2023-04-28T01:27:41.888Z,86.53
2023-04-28T01:30:13.329Z,86.42
2023-04-28T01:32:45.199Z,85.77
2023-04-28T01:35:16.644Z,85.76
2023-04-28T01:37:48.577Z,85.85
2023-04-28T01:40:20.043Z,85.38
2023-04-28T01:42:51.499Z,85.86
2023-04-28T01:45:22.947Z,87.02
2023-04-28T01:47:54.434Z,85.98
2023-04-28T01:50:25.876Z,86.17
2023-04-28T01:52:57.743Z,85.62
2023-04-28T01:55:29.515Z,85.94
2023-04-28T01:58:01.625Z,85.13
2023-04-28T02:00:33.062Z,85.59
2023-04-28T02:03:04.790Z,85.11
2023-04-28T02:05:36.333Z,85.08
2023-04-28T02:08:08.066Z,85.18
2023-04-28T02:10:39.547Z,85.36
2023-04-28T02:13:11.382Z,85.64
2023-04-28T02:15:42.856Z,85.93
2023-04-28T02:18:14.384Z,85.95
2023-04-28T02:20:45.844Z,85.77
2023-04-28T02:23:17.571Z,85.30
2023-04-28T02:25:49.006Z,85.19
2023-04-28T02:28:20.780Z,85.35
2023-04-28T02:30:52.230Z,85.54
2023-04-28T02:33:23.716Z,85.46
2023-04-28T02:35:55.157Z,85.18
2023-04-28T02:38:26.880Z,85.78
2023-04-28T02:40:58.342Z,85.48
2023-04-28T02:43:30.078Z,85.30
2023-04-28T02:46:01.532Z,86.66
2023-04-28T02:48:33.168Z,85.27
2023-04-28T02:51:04.613Z,86.18
2023-04-28T02:53:36.377Z,86.20
2023-04-28T02:56:07.843Z,86.73
2023-04-28T02:58:39.613Z,86.72
2023-04-28T03:01:11.161Z,86.82
2023-04-28T03:03:43.010Z,87.68
2023-04-28T03:06:14.623Z,87.23
2023-04-28T03:08:46.523Z,87.46
2023-04-28T03:11:17.971Z,88.12
2023-04-28T03:13:49.449Z,88.13
2023-04-28T03:16:20.892Z,88.94
2023-04-28T03:18:52.355Z,89.82
2023-04-28T03:21:23.798Z,89.67
2023-04-28T03:23:55.250Z,90.42
2023-04-28T03:26:26.732Z,90.42
2023-04-28T03:28:58.194Z,90.42
2023-04-28T03:31:29.681Z,90.95
2023-04-28T03:34:01.348Z,90.70
2023-04-28T03:36:32.812Z,91.37
2023-04-28T03:39:04.265Z,91.20
2023-04-28T03:41:35.707Z,90.83
2023-04-28T03:44:07.578Z,91.41
2023-04-28T03:46:39.028Z,90.70
2023-04-28T03:49:10.833Z,91.53
2023-04-28T03:51:42.674Z,91.24
2023-04-28T03:54:14.272Z,90.11
2023-04-28T03:56:46.063Z,90.15
2023-04-28T03:59:17.544Z,89.52
2023-04-28T04:01:49.358Z,89.45
2023-04-28T04:04:21.267Z,89.03
2023-04-28T04:06:53.124Z,88.90
2023-04-28T04:09:24.572Z,87.67
2023-04-28T04:11:56.036Z,88.48
2023-04-28T04:14:27.478Z,88.20
2023-04-28T04:16:59.283Z,88.12
2023-04-28T04:19:30.757Z,87.43
2023-04-28T04:22:02.402Z,87.36
2023-04-28T04:24:33.846Z,87.43
2023-04-28T04:27:05.363Z,87.58
2023-04-28T04:29:36.823Z,86.60
2023-04-28T04:32:08.501Z,85.77
2023-04-28T04:34:39.963Z,85.95
2023-04-28T04:37:11.467Z,86.02
2023-04-28T04:39:42.940Z,85.75
2023-04-28T04:42:24.798Z,86.10
2023-04-28T04:44:57.101Z,85.70
2023-04-28T04:47:28.779Z,84.61
2023-04-28T04:50:00.243Z,84.63
2023-04-28T04:52:32.186Z,83.77
2023-04-28T04:55:03.671Z,83.04
2023-04-28T04:57:35.436Z,82.54
2023-04-28T05:00:06.917Z,82.36
2023-04-28T05:02:38.906Z,81.34
2023-04-28T05:05:20.333Z,81.51
2023-04-28T05:07:53.070Z,80.23
2023-04-28T05:10:24.556Z,78.88
2023-04-28T05:12:56.076Z,78.15
2023-04-28T05:15:27.548Z,77.81
2023-04-28T05:17:59.528Z,76.79
2023-04-28T05:20:31.025Z,76.63
2023-04-28T05:23:02.833Z,75.24
2023-04-28T05:25:34.298Z,74.48
2023-04-28T05:28:05.770Z,74.56
2023-04-28T05:30:37.255Z,73.00
2023-04-28T05:33:09.135Z,73.01
2023-04-28T05:35:40.656Z,72.42
2023-04-28T05:38:12.170Z,72.96
2023-04-28T05:40:43.995Z,71.47
2023-04-28T05:43:15.458Z,70.50
2023-04-28T05:45:47.286Z,69.93
2023-04-28T05:48:18.782Z,68.73
2023-04-28T05:50:50.289Z,69.14
2023-04-28T05:53:21.746Z,67.65
2023-04-28T05:55:53.248Z,66.81
2023-04-28T05:58:24.736Z,66.52
2023-04-28T06:00:56.224Z,65.39
2023-04-28T06:03:27.884Z,64.25
2023-04-28T06:05:59.970Z,62.70
2023-04-28T06:08:31.436Z,61.56
2023-04-28T06:11:03.130Z,60.70
2023-04-28T06:13:34.604Z,62.68
2023-04-28T06:16:06.434Z,61.86
2023-04-28T06:18:38.000Z,61.99
2023-04-28T06:21:09.873Z,61.66
2023-04-28T06:23:41.329Z,61.86
2023-04-28T06:26:12.835Z,62.10
2023-04-28T06:28:44.287Z,61.25
2023-04-28T06:31:16.112Z,61.14
2023-04-28T06:33:47.597Z,60.62
2023-04-28T06:36:19.400Z,60.71
2023-04-28T06:38:50.867Z,60.67
2023-04-28T06:41:22.702Z,60.70
2023-04-28T06:43:54.158Z,60.00
2023-04-28T06:46:25.996Z,59.94
2023-04-28T06:48:57.491Z,59.98
2023-04-28T06:51:29.685Z,58.91
2023-04-28T06:54:01.373Z,58.90
2023-04-28T06:56:33.419Z,57.42
2023-04-28T06:59:04.910Z,56.61
2023-04-28T07:01:36.874Z,54.57
2023-04-28T07:04:08.578Z,53.43
2023-04-28T07:06:40.533Z,52.79
2023-04-28T07:09:12.009Z,53.13
2023-04-28T07:11:43.944Z,52.00
2023-04-28T07:14:15.601Z,51.61
2023-04-28T07:16:47.470Z,50.61
2023-04-28T07:19:18.956Z,49.93
2023-04-28T07:21:50.436Z,50.42
2023-04-28T07:24:21.924Z,50.16
2023-04-28T07:26:53.430Z,49.50
2023-04-28T07:29:24.901Z,49.18
2023-04-28T07:31:56.456Z,48.40
2023-04-28T07:34:28.023Z,48.71
2023-04-28T07:36:59.886Z,47.20
2023-04-28T07:39:31.390Z,48.73
2023-04-28T07:42:03.965Z,48.72
2023-04-28T07:44:35.495Z,48.07
2023-04-28T07:47:06.977Z,48.27
2023-04-28T07:49:38.475Z,47.67
2023-04-28T07:52:09.972Z,48.42
2023-04-28T07:54:41.440Z,47.76
2023-04-28T07:57:12.925Z,45.71
2023-04-28T07:59:44.385Z,45.22
2023-04-28T08:02:16.287Z,44.38
2023-04-28T08:04:47.937Z,42.76
2023-04-28T08:07:19.475Z,43.02
2023-04-28T08:09:53.233Z,43.31
2023-04-28T08:12:25.376Z,41.46
2023-04-28T08:14:56.852Z,42.27
2023-04-28T08:17:28.430Z,43.05
2023-04-28T08:19:59.922Z,42.39
2023-04-28T08:22:31.762Z,43.05
2023-04-28T08:25:03.224Z,42.34
2023-04-28T08:27:35.055Z,42.36
2023-04-28T08:30:06.547Z,42.14
2023-04-28T08:32:38.501Z,42.31
2023-04-28T08:35:10.059Z,41.00
2023-04-28T08:37:41.815Z,40.64
2023-04-28T08:40:13.279Z,40.31
2023-04-28T08:42:45.132Z,42.06
2023-04-28T08:45:16.679Z,40.55
2023-04-28T08:47:48.499Z,40.94
2023-04-28T08:50:20.046Z,39.73
2023-04-28T08:52:51.543Z,40.60
2023-04-28T08:55:23.009Z,39.85
2023-04-28T08:57:54.485Z,40.35
2023-04-28T09:00:26.007Z,40.02
2023-04-28T09:02:57.998Z,39.90
2023-04-28T09:05:29.766Z,39.44
2023-04-28T09:08:01.657Z,39.71
2023-04-28T09:10:33.155Z,40.58
2023-04-28T09:13:04.922Z,40.10
2023-04-28T09:15:36.389Z,40.67
2023-04-28T09:18:08.103Z,39.50
2023-04-28T09:20:39.683Z,39.75
2023-04-28T09:23:11.493Z,40.23
2023-04-28T09:25:42.970Z,40.18
2023-04-28T09:28:14.862Z,40.15
2023-04-28T09:30:46.416Z,39.01
2023-04-28T09:33:18.267Z,39.33
2023-04-28T09:35:49.785Z,38.94
2023-04-28T09:38:21.591Z,37.51
2023-04-28T09:40:53.183Z,37.88
2023-04-28T09:43:24.846Z,38.27
2023-04-28T09:45:56.411Z,36.99
2023-04-28T09:48:27.936Z,37.47
2023-04-28T09:50:59.696Z,37.46
2023-04-28T09:53:31.151Z,36.54
2023-04-28T09:56:02.939Z,35.75
2023-04-28T09:58:34.420Z,36.28
2023-04-28T10:01:06.508Z,36.41
2023-04-28T10:03:38.143Z,36.40
2023-04-28T10:06:10.020Z,36.04
2023-04-28T10:08:41.530Z,35.62
2023-04-28T10:11:13.408Z,34.92
2023-04-28T10:13:44.889Z,35.16
2023-04-28T10:16:16.768Z,35.20
2023-04-28T10:18:48.248Z,36.70
2023-04-28T10:21:19.990Z,34.68
2023-04-28T10:23:51.464Z,35.56
2023-04-28T10:26:23.270Z,33.97
2023-04-28T10:28:54.765Z,33.70
2023-04-28T10:31:26.642Z,34.26
2023-04-28T10:33:58.269Z,33.19
2023-04-28T10:36:35.892Z,33.52
2023-04-28T10:39:08.056Z,33.82
2023-04-28T10:41:39.891Z,34.74
2023-04-28T10:44:11.398Z,32.58
2023-04-28T10:46:42.918Z,33.50
2023-04-28T10:49:14.442Z,32.24
2023-04-28T10:51:46.244Z,32.84
2023-04-28T10:54:17.734Z,33.36
2023-04-28T10:56:49.476Z,34.23
2023-04-28T10:59:20.953Z,34.75
2023-04-28T11:01:52.486Z,35.11
2023-04-28T11:04:24.142Z,35.02
2023-04-28T11:06:55.786Z,35.34
2023-04-28T11:09:28.293Z,35.69
2023-04-28T11:12:00.263Z,35.67
2023-04-28T11:14:31.757Z,35.52
2023-04-28T11:17:03.569Z,35.29
2023-04-28T11:19:35.075Z,35.77
2023-04-28T11:22:06.750Z,35.08
2023-04-28T11:24:38.239Z,34.25
2023-04-28T11:27:09.891Z,35.31
2023-04-28T11:29:41.384Z,36.17
2023-04-28T11:32:13.239Z,36.10
2023-04-28T11:34:44.715Z,34.78
2023-04-28T11:37:16.487Z,34.49
2023-04-28T11:39:48.136Z,35.97
2023-04-28T11:42:19.645Z,35.78
2023-04-28T11:44:51.136Z,35.48
2023-04-28T11:47:22.668Z,35.23
2023-04-28T11:49:54.153Z,35.65
2023-04-28T11:52:25.879Z,36.62
2023-04-28T11:54:57.349Z,34.85
2023-04-28T11:57:28.852Z,35.19
2023-04-28T12:00:00.325Z,34.79
2023-04-28T12:02:32.265Z,34.20
2023-04-28T12:05:03.822Z,33.49
2023-04-28T12:07:35.623Z,32.54
2023-04-28T12:10:07.069Z,33.68
2023-04-28T12:15:13.021Z,33.70
2023-04-28T12:17:44.962Z,33.53
2023-04-28T12:20:16.446Z,33.71
2023-04-28T12:22:48.195Z,34.40
2023-04-28T12:25:19.681Z,34.23
2023-04-28T12:27:51.157Z,34.36
2023-04-28T12:30:22.618Z,34.23
2023-04-28T12:32:54.180Z,35.50
2023-04-28T12:35:25.651Z,35.29
2023-04-28T12:37:57.118Z,34.49
2023-04-28T12:40:28.614Z,34.50
2023-04-28T12:43:00.390Z,36.14
2023-04-28T12:45:31.845Z,35.84
2023-04-28T12:48:03.315Z,35.42
2023-04-28T12:50:34.779Z,35.62
2023-04-28T12:53:06.573Z,36.75
2023-04-28T12:55:38.026Z,36.65
2023-04-28T12:58:09.468Z,36.73
2023-04-28T13:00:40.939Z,36.74
2023-04-28T13:03:12.649Z,36.63
2023-04-28T13:05:44.162Z,36.77
2023-04-28T13:08:15.966Z,37.60
2023-04-28T13:10:47.531Z,36.70
2023-04-28T13:13:19.110Z,37.20
2023-04-28T13:15:50.724Z,36.83
2023-04-28T13:18:22.215Z,38.08
2023-04-28T13:20:53.666Z,37.93
2023-04-28T13:23:25.107Z,38.26
2023-04-28T13:25:56.569Z,38.33
2023-04-28T13:28:28.015Z,37.55
2023-04-28T13:30:59.838Z,37.96
2023-04-28T13:33:31.289Z,39.98
2023-04-28T13:36:03.076Z,39.81
2023-04-28T13:38:34.562Z,39.29
2023-04-28T13:41:06.291Z,39.74
2023-04-28T13:43:37.749Z,40.27
2023-04-28T13:46:09.449Z,40.81
2023-04-28T13:48:40.959Z,41.17
2023-04-28T13:51:12.892Z,41.74
2023-04-28T13:53:44.338Z,42.48
2023-04-28T13:56:16.195Z,43.43
2023-04-28T13:58:47.643Z,43.12
2023-04-28T14:01:19.149Z,44.12
2023-04-28T14:03:50.760Z,44.64
2023-04-28T14:06:22.611Z,46.14
2023-04-28T14:08:54.194Z,45.98
2023-04-28T14:11:26.020Z,45.18
2023-04-28T14:13:57.576Z,46.59
2023-04-28T14:16:29.248Z,50.94
2023-04-28T14:19:00.702Z,51.27
2023-04-28T14:21:32.478Z,52.03
2023-04-28T14:24:03.990Z,52.23
2023-04-28T14:26:35.798Z,52.16
2023-04-28T14:29:07.275Z,49.70
2023-04-28T14:31:38.991Z,52.15
2023-04-28T14:34:10.476Z,52.79
2023-04-28T14:36:42.236Z,52.36
2023-04-28T14:39:13.705Z,51.88
2023-04-28T14:41:45.473Z,50.64
2023-04-28T14:44:16.943Z,49.36
2023-04-28T14:46:48.671Z,50.14
2023-04-28T14:49:20.143Z,49.36
2023-04-28T14:51:51.616Z,50.17
2023-04-28T14:54:23.082Z,52.64
2023-04-28T14:56:54.568Z,54.68
2023-04-28T14:59:26.000Z,56.18
2023-04-28T15:01:57.539Z,57.13
2023-04-28T15:04:29.246Z,58.83
2023-04-28T15:07:01.147Z,60.81
2023-04-28T15:09:32.607Z,63.74
2023-04-28T15:12:04.287Z,66.00
2023-04-28T15:14:35.753Z,67.15
2023-04-28T15:17:07.507Z,67.47
2023-04-28T15:19:38.944Z,68.62
2023-04-28T15:22:10.384Z,68.94
2023-04-28T15:24:41.814Z,68.83
2023-04-28T15:27:13.584Z,68.76
2023-04-28T15:29:45.036Z,69.34
2023-04-28T15:32:16.506Z,68.35
2023-04-28T15:34:48.296Z,68.44
2023-04-28T15:37:20.353Z,67.92
2023-04-28T15:39:51.799Z,67.81
2023-04-28T15:42:23.712Z,67.30
2023-04-28T15:44:55.172Z,66.89
2023-04-28T15:47:26.629Z,66.86
2023-04-28T15:49:58.068Z,67.65
2023-04-28T15:52:29.508Z,68.74
2023-04-28T15:55:01.004Z,69.60
2023-04-28T15:57:32.675Z,70.87
2023-04-28T16:00:04.141Z,70.86
2023-04-28T16:02:35.977Z,72.24
2023-04-28T16:05:07.637Z,73.35
2023-04-28T16:07:39.302Z,74.88
2023-04-28T16:10:10.750Z,77.05
2023-04-28T16:12:42.558Z,76.85
2023-04-28T16:15:14.075Z,77.55
2023-04-28T16:17:45.907Z,78.45
2023-04-28T16:20:17.367Z,80.92
2023-04-28T16:22:49.170Z,78.36
2023-04-28T16:25:20.608Z,81.77
2023-04-28T16:27:52.079Z,77.29
2023-04-28T16:30:23.533Z,79.07
2023-04-28T16:32:55.028Z,76.24
2023-04-28T16:35:26.499Z,76.50
2023-04-28T16:37:58.429Z,75.01
2023-04-28T16:40:30.155Z,73.91
2023-04-28T16:43:01.935Z,74.35
2023-04-28T16:45:33.396Z,75.77
2023-04-28T16:48:04.923Z,76.80
2023-04-28T16:50:37.375Z,76.58
2023-04-28T16:53:10.408Z,75.26
2023-04-28T16:55:41.873Z,77.60
2023-04-28T16:58:13.340Z,79.15
2023-04-28T17:00:44.775Z,79.09
2023-04-28T17:03:16.670Z,79.20
2023-04-28T17:05:48.267Z,78.22
2023-04-28T17:08:20.111Z,79.69
2023-04-28T17:10:51.549Z,79.74
2023-04-28T17:13:23.285Z,79.57
2023-04-28T17:15:54.834Z,79.85
2023-04-28T17:18:26.521Z,80.55
2023-04-28T17:20:57.969Z,81.13
2023-04-28T17:23:29.767Z,82.58
2023-04-28T17:26:01.235Z,85.07
2023-04-28T17:28:33.168Z,85.02
2023-04-28T17:31:04.644Z,85.00
2023-04-28T17:33:36.481Z,87.69
2023-04-28T17:36:07.921Z,87.10
2023-04-28T17:38:39.762Z,90.53
2023-04-28T17:41:11.256Z,90.46
2023-04-28T17:43:43.053Z,92.57
2023-04-28T17:46:14.604Z,91.73
2023-04-28T17:48:46.483Z,90.75
2023-04-28T17:51:17.960Z,92.14
2023-04-28T17:53:49.434Z,93.44
2023-04-28T17:56:20.871Z,92.82
2023-04-28T17:58:52.443Z,91.89
2023-04-28T18:01:24.238Z,93.31
2023-04-28T18:03:55.702Z,92.37
2023-04-28T18:06:27.561Z,92.12
2023-04-28T18:08:59.027Z,94.86
2023-04-28T18:11:30.868Z,93.58
2023-04-28T18:14:02.352Z,91.75
2023-04-28T18:16:33.865Z,92.15
2023-04-28T18:19:05.356Z,95.75
2023-04-28T18:21:36.823Z,96.25
2023-04-28T18:24:08.365Z,95.84
2023-04-28T18:26:39.880Z,96.16
2023-04-28T18:29:11.370Z,98.13
2023-04-28T18:31:42.871Z,97.61
2023-04-28T18:34:14.370Z,97.99
2023-04-28T18:36:46.138Z,99.98
2023-04-28T18:39:17.598Z,100.00
2023-04-28T18:41:49.119Z,100.00
2023-04-28T18:44:20.579Z,100.00
2023-04-28T18:46:52.336Z,100.00
2023-04-28T18:49:23.808Z,100.00
2023-04-28T18:51:55.280Z,100.00
2023-04-28T18:54:26.728Z,100.00
2023-04-28T18:56:58.631Z,100.00
2023-04-28T18:59:30.081Z,100.00
2023-04-28T19:02:01.534Z,100.00
2023-04-28T19:04:33.091Z,100.00
2023-04-28T19:07:05.022Z,100.00
2023-04-28T19:09:36.497Z,100.00
2023-04-28T19:12:07.968Z,100.00
2023-04-28T19:14:39.419Z,100.00
2023-04-28T19:17:11.175Z,100.00
2023-04-28T19:19:42.739Z,100.00
2023-04-28T19:22:14.351Z,100.00
2023-04-28T19:24:45.803Z,100.00
2023-04-28T19:27:17.577Z,100.00
2023-04-28T19:29:49.193Z,100.00
2023-04-28T19:32:21.246Z,100.00
2023-04-28T19:34:52.747Z,100.00
2023-04-28T19:37:24.538Z,100.00
2023-04-28T19:39:55.993Z,100.00
2023-04-28T19:42:27.923Z,100.00
2023-04-28T19:44:59.478Z,100.00
2023-04-28T19:47:30.965Z,100.00
2023-04-28T19:50:02.427Z,100.00
2023-04-28T19:52:34.067Z,100.00
2023-04-28T19:55:05.575Z,100.00
2023-04-28T19:57:37.040Z,100.00
2023-04-28T20:00:08.501Z,100.00
2023-04-28T20:02:40.252Z,100.00
2023-04-28T20:05:11.802Z,100.00
2023-04-28T20:07:43.298Z,100.00
2023-04-28T20:10:14.742Z,100.00
2023-04-28T20:12:46.207Z,100.00
2023-04-28T20:15:17.657Z,100.00
2023-04-28T20:17:49.305Z,100.00
2023-04-28T20:20:20.804Z,100.00
2023-04-28T20:22:52.286Z,100.00
2023-04-28T20:25:23.799Z,100.00
2023-04-28T20:27:55.262Z,100.00
2023-04-28T20:30:26.723Z,100.00
2023-04-28T20:32:58.493Z,100.00
2023-04-28T20:35:29.996Z,100.00
2023-04-28T20:38:01.812Z,100.00
2023-04-28T20:40:33.266Z,100.00
2023-04-28T20:43:04.740Z,100.00
2023-04-28T20:45:36.254Z,100.00
2023-04-28T20:48:07.797Z,100.00
2023-04-28T20:50:39.282Z,100.00
2023-04-28T20:53:11.261Z,100.00
2023-04-28T20:55:42.728Z,100.00
2023-04-28T20:58:14.250Z,100.00
2023-04-28T21:00:45.775Z,100.00
2023-04-28T21:03:17.887Z,100.00
2023-04-28T21:05:49.483Z,100.00
2023-04-28T21:08:20.970Z,100.00
2023-04-28T21:10:52.420Z,100.00
2023-04-28T21:13:24.218Z,100.00
2023-04-28T21:15:55.685Z,100.00
2023-04-28T21:18:27.498Z,100.00
2023-04-28T21:20:59.030Z,100.00
2023-04-28T21:23:30.958Z,100.00
2023-04-28T21:26:02.425Z,100.00
2023-04-28T21:28:34.221Z,100.00
2023-04-28T21:31:05.718Z,100.00
2023-04-28T21:33:37.558Z,100.00
2023-04-28T21:36:09.046Z,100.00
2023-04-28T21:38:40.949Z,100.00
2023-04-28T21:41:12.438Z,100.00
2023-04-28T21:43:43.973Z,100.00
2023-04-28T21:46:15.478Z,100.00
2023-04-28T21:48:47.305Z,100.00
2023-04-28T21:51:18.754Z,100.00
2023-04-28T21:53:50.233Z,100.00
2023-04-28T21:56:21.690Z,100.00
2023-04-28T21:58:53.149Z,100.00
2023-04-28T22:01:24.795Z,100.00
2023-04-28T22:03:56.448Z,100.00
2023-04-28T22:06:28.332Z,100.00
2023-04-28T22:08:59.779Z,100.00
2023-04-28T22:11:31.450Z,100.00
2023-04-28T22:14:02.915Z,100.00
2023-04-28T22:16:34.654Z,100.00
2023-04-28T22:19:06.126Z,100.00
2023-04-28T22:21:37.979Z,100.00
2023-04-28T22:24:09.433Z,100.00
2023-04-28T22:26:41.037Z,100.00
2023-04-28T22:29:12.483Z,100.00
2023-04-28T22:31:44.354Z,100.00
2023-04-28T22:34:15.937Z,100.00
2023-04-28T22:36:47.441Z,100.00
2023-04-28T22:39:18.957Z,100.00
2023-04-28T22:41:50.462Z,100.00
2023-04-28T22:44:21.922Z,100.00
2023-04-28T22:46:53.532Z,100.00
2023-04-28T22:49:25.112Z,100.00
2023-04-28T22:51:56.582Z,100.00
2023-04-28T22:54:28.009Z,100.00
2023-04-28T22:56:59.814Z,100.00
2023-04-28T22:59:31.280Z,100.00
2023-04-28T23:02:02.776Z,100.00
2023-04-28T23:04:34.351Z,100.00
2023-04-28T23:07:06.464Z,100.00
2023-04-28T23:09:37.973Z,100.00
2023-04-28T23:12:09.810Z,100.00
2023-04-28T23:14:41.268Z,100.00
2023-04-28T23:17:13.082Z,100.00
2023-04-28T23:19:44.537Z,100.00
2023-04-28T23:22:16.214Z,100.00
2023-04-28T23:24:47.688Z,100.00
2023-04-28T23:27:19.479Z,100.00
2023-04-28T23:29:51.248Z,100.00
2023-04-28T23:32:23.306Z,100.00
2023-04-28T23:34:54.783Z,100.00
2023-04-28T23:37:26.561Z,100.00
2023-04-28T23:39:58.008Z,100.00
2023-04-28T23:42:29.760Z,100.00
2023-04-28T23:45:01.205Z,100.00
2023-04-28T23:47:33.020Z,100.00
2023-04-28T23:50:04.518Z,100.00
2023-04-28T23:52:35.965Z,100.00
2023-04-28T23:55:07.433Z,100.00
2023-04-28T23:57:39.194Z,100.00
